Terminal Aerodrome Forecast
Issued by NWS

Current Version | Previous Version | Text Only | Print | Product List | Glossary On
Versions: 1 2 3 4 5 6 7 8 9 10 11 12 13 14 15 16 17 18 19 20 21 22 23 24 25
038
FTUS41 KILN 211121
TAFLCK
TAF
KLCK 211121Z 2112/2212 06005KT P6SM VCSH BKN050 OVC110
     FM211400 08006KT P6SM VCSH BKN040
     FM211800 12008KT P6SM VCTS BKN040CB
     FM220100 18008KT P6SM VCSH BKN040
      AMD NOT SKED=

USA.gov is the U.S. government's official web portal to all federal, state and local government web resources and services.